Time;durP1;ratioP1;P1;durP2;ratioP2;P2;SDS_P1;SDS_P2;PMS_P1;PMS_P2;Temp;Humidity;BMP_temperature;BMP_pressure;BME280_temperature;BME280_humidity;BME280_pressure;Samples;Min_cycle;Max_cycle;Signal;HPM_P1;HPM_P2
2022/06/07 00:02:13;;;;;;;17.90;13.97;;;14.20;99.90;;;;;;5080914;28;20200;-52
2022/06/07 00:04:41;;;;;;;20.07;13.67;;;14.10;99.90;;;;;;5062208;28;20640;-53
2022/06/07 00:07:09;;;;;;;20.07;14.53;;;14.10;99.90;;;;;;5076228;28;20277;-51
2022/06/07 00:09:37;;;;;;;18.87;14.00;;;14.10;99.90;;;;;;5078736;28;20290;-51
2022/06/07 00:12:04;;;;;;;20.77;15.03;;;14.10;99.90;;;;;;5075625;28;20253;-52
2022/06/07 00:14:34;;;;;;;20.80;15.53;;;14.10;99.90;;;;;;5079931;28;20203;-52
2022/06/07 00:17:05;;;;;;;18.83;14.27;;;14.20;99.90;;;;;;5080696;28;20343;-52
2022/06/07 00:19:33;;;;;;;21.37;14.77;;;14.10;99.90;;;;;;5075363;28;20634;-51
2022/06/07 00:22:01;;;;;;;21.40;15.73;;;14.10;99.90;;;;;;5076748;28;20232;-52
2022/06/07 00:24:28;;;;;;;22.23;15.13;;;14.00;99.90;;;;;;5082578;28;20207;-53
2022/06/07 00:26:55;;;;;;;22.97;15.90;;;14.10;99.90;;;;;;5083683;28;20195;-51
2022/06/07 00:29:24;;;;;;;22.83;16.27;;;14.10;99.90;;;;;;5089038;28;20194;-53
2022/06/07 00:31:52;;;;;;;23.17;16.80;;;14.10;99.90;;;;;;5080995;28;20198;-52
2022/06/07 00:34:19;;;;;;;23.57;16.53;;;14.10;99.90;;;;;;5064266;28;20298;-56
2022/06/07 00:36:46;;;;;;;24.00;16.40;;;14.00;99.90;;;;;;5072638;28;20704;-52
2022/06/07 00:39:13;;;;;;;23.40;17.47;;;14.00;99.90;;;;;;5081361;28;20220;-53
2022/06/07 00:41:41;;;;;;;21.93;16.87;;;14.10;99.90;;;;;;5086436;28;20701;-53
2022/06/07 00:44:25;;;;;;;25.50;17.43;;;14.10;99.90;;;;;;5077463;28;20268;-52
2022/06/07 00:46:58;;;;;;;24.83;17.30;;;14.20;99.90;;;;;;5080860;28;20190;-52
2022/06/07 00:49:28;;;;;;;23.50;16.43;;;14.30;99.90;;;;;;5084127;28;20203;-53
2022/06/07 00:51:55;;;;;;;23.03;17.53;;;14.30;99.90;;;;;;5076404;28;20302;-52
2022/06/07 00:54:26;;;;;;;24.67;17.57;;;14.20;99.90;;;;;;5060161;28;20272;-53
2022/06/07 00:56:53;;;;;;;27.33;17.90;;;14.20;99.90;;;;;;5076634;28;20287;-52
2022/06/07 00:59:20;;;;;;;27.33;18.30;;;14.30;99.90;;;;;;5085779;28;20198;-52
2022/06/07 01:01:46;;;;;;;24.00;17.77;;;14.10;99.90;;;;;;5084063;28;20302;-52
2022/06/07 01:04:14;;;;;;;27.27;18.47;;;14.00;99.90;;;;;;5085076;28;20302;-53
2022/06/07 01:12:12;;;;;;;27.00;18.07;;;14.20;99.90;;;;;;5060305;28;20279;-53
2022/06/07 01:14:39;;;;;;;29.07;18.03;;;14.20;99.90;;;;;;5082345;28;20590;-52
2022/06/07 01:17:06;;;;;;;23.20;17.60;;;14.20;99.90;;;;;;5081652;28;20203;-53
2022/06/07 01:19:33;;;;;;;31.47;19.40;;;14.30;99.90;;;;;;5081623;28;20199;-52
2022/06/07 01:22:00;;;;;;;25.70;18.97;;;14.30;99.90;;;;;;5074162;28;20218;-51
2022/06/07 01:24:27;;;;;;;25.07;17.73;;;14.30;99.90;;;;;;5082378;28;20207;-49
2022/06/07 01:26:54;;;;;;;25.60;18.47;;;14.30;99.90;;;;;;5076367;28;20196;-50
2022/06/07 01:29:22;;;;;;;26.53;19.23;;;14.30;99.90;;;;;;5078843;28;20586;-49
2022/06/07 01:31:49;;;;;;;26.00;18.63;;;14.40;99.90;;;;;;5081362;28;20718;-51
2022/06/07 01:34:17;;;;;;;27.37;17.73;;;14.20;99.90;;;;;;5077338;28;20204;-52
2022/06/07 01:36:44;;;;;;;26.23;18.43;;;14.20;99.90;;;;;;5083571;28;20190;-51
2022/06/07 01:41:56;;;;;;;27.33;17.27;;;14.20;99.90;;;;;;5078278;28;20246;-51
2022/06/07 01:44:27;;;;;;;27.37;16.70;;;14.20;99.90;;;;;;5081534;28;20220;-52
2022/06/07 01:46:55;;;;;;;24.10;16.47;;;14.10;99.90;;;;;;5079430;28;20204;-53
2022/06/07 01:49:23;;;;;;;22.53;16.67;;;14.10;99.90;;;;;;5082713;28;20234;-53
2022/06/07 01:51:52;;;;;;;23.23;15.47;;;14.00;99.90;;;;;;5080366;28;20669;-53
2022/06/07 01:54:20;;;;;;;22.63;17.20;;;14.10;99.90;;;;;;5078837;28;20339;-52
2022/06/07 01:56:51;;;;;;;20.27;15.87;;;13.90;99.90;;;;;;5076621;28;20189;-51
2022/06/07 01:59:19;;;;;;;21.70;15.93;;;13.90;99.90;;;;;;5084877;28;20224;-51
2022/06/07 02:01:47;;;;;;;25.37;17.43;;;13.90;99.90;;;;;;5077404;28;20245;-52
2022/06/07 02:04:14;;;;;;;20.17;14.23;;;14.00;99.90;;;;;;5080922;28;20229;-52
2022/06/07 02:06:41;;;;;;;23.63;16.57;;;14.00;99.90;;;;;;5074012;28;20298;-51
2022/06/07 02:09:09;;;;;;;21.40;15.13;;;14.10;99.90;;;;;;5083129;28;21539;-53
2022/06/07 02:11:37;;;;;;;25.23;15.87;;;14.20;99.90;;;;;;5081983;28;20255;-51
2022/06/07 02:14:05;;;;;;;22.07;16.47;;;14.30;99.90;;;;;;5081569;28;20284;-53
2022/06/07 02:16:32;;;;;;;21.80;15.27;;;14.10;99.90;;;;;;5077689;28;20302;-51
2022/06/07 02:18:59;;;;;;;22.73;15.93;;;14.10;99.90;;;;;;5076289;28;20213;-52
2022/06/07 02:21:27;;;;;;;21.43;14.90;;;14.10;99.90;;;;;;5076439;28;20344;-50
2022/06/07 02:23:54;;;;;;;22.87;16.23;;;14.10;99.90;;;;;;5079686;28;20219;-51
2022/06/07 02:26:23;;;;;;;21.30;14.60;;;13.90;99.90;;;;;;5073972;28;20268;-50
2022/06/07 02:28:57;;;;;;;23.13;15.80;;;13.90;99.90;;;;;;5079361;28;20203;-52
2022/06/07 02:31:26;;;;;;;19.20;14.60;;;13.90;99.90;;;;;;5079467;28;20194;-51
2022/06/07 02:33:54;;;;;;;20.00;14.50;;;13.90;99.90;;;;;;5081399;28;20674;-51
2022/06/07 02:36:21;;;;;;;21.00;14.10;;;13.90;99.90;;;;;;5082996;28;20242;-50
2022/06/07 02:38:48;;;;;;;19.70;14.13;;;13.80;99.90;;;;;;5079309;28;20272;-51
2022/06/07 02:41:19;;;;;;;19.60;14.50;;;13.80;99.90;;;;;;5082883;28;20288;-51
2022/06/07 02:43:46;;;;;;;23.40;14.67;;;13.80;99.90;;;;;;5081373;28;20304;-52
2022/06/07 02:46:14;;;;;;;21.43;14.13;;;13.80;99.90;;;;;;5078878;28;20300;-51
2022/06/07 02:48:41;;;;;;;20.87;12.37;;;13.70;99.90;;;;;;5082540;28;20199;-52
2022/06/07 02:51:08;;;;;;;17.77;12.57;;;13.80;99.90;;;;;;5080461;28;20237;-51
2022/06/07 02:53:35;;;;;;;16.47;12.80;;;13.80;99.90;;;;;;5085104;28;20280;-52
2022/06/07 02:56:03;;;;;;;17.13;13.73;;;13.90;99.90;;;;;;5078374;28;20618;-51
2022/06/07 02:58:31;;;;;;;15.87;12.13;;;13.70;99.90;;;;;;5065887;28;20285;-51
2022/06/07 03:00:58;;;;;;;16.30;13.17;;;13.70;99.90;;;;;;5085717;28;20203;-50
2022/06/07 03:03:26;;;;;;;19.60;12.23;;;13.80;99.90;;;;;;5080590;28;20738;-51
2022/06/07 03:05:54;;;;;;;15.80;12.87;;;13.60;99.90;;;;;;5080622;28;20217;-52
2022/06/07 03:08:21;;;;;;;14.90;11.47;;;13.70;99.90;;;;;;5076738;28;20227;-51
2022/06/07 03:10:49;;;;;;;15.07;11.70;;;13.60;99.90;;;;;;5081756;28;20208;-52
2022/06/07 03:13:17;;;;;;;17.87;12.80;;;13.70;99.90;;;;;;5080866;28;20283;-51
2022/06/07 03:15:45;;;;;;;17.47;12.17;;;13.60;99.90;;;;;;5076486;28;20203;-52
2022/06/07 03:18:12;;;;;;;15.90;12.30;;;13.70;99.90;;;;;;5076306;28;20356;-52
2022/06/07 03:20:41;;;;;;;18.93;12.93;;;13.70;99.90;;;;;;5078727;28;20231;-51
2022/06/07 03:23:07;;;;;;;15.87;12.50;;;13.70;99.90;;;;;;5075027;28;20290;-52
2022/06/07 03:25:34;;;;;;;16.57;12.20;;;13.80;99.90;;;;;;5076797;28;20229;-52
2022/06/07 03:28:01;;;;;;;14.90;11.53;;;13.70;99.90;;;;;;5076869;28;20745;-52
2022/06/07 03:30:28;;;;;;;15.87;11.97;;;13.70;99.90;;;;;;5076758;28;21031;-52
2022/06/07 03:32:55;;;;;;;15.83;11.20;;;13.60;99.90;;;;;;5081345;28;20240;-51
2022/06/07 03:35:22;;;;;;;18.00;12.33;;;13.70;99.90;;;;;;5075761;28;20918;-50
2022/06/07 03:37:49;;;;;;;18.33;11.90;;;13.70;99.90;;;;;;5075305;28;20194;-52
2022/06/07 03:40:42;;;;;;;14.30;11.63;;;13.70;99.90;;;;;;5077773;28;20709;-51
2022/06/07 03:43:03;;;;;;;17.67;12.37;;;13.70;99.90;;;;;;5079373;28;20332;-51
2022/06/07 03:45:31;;;;;;;17.10;12.30;;;13.60;99.90;;;;;;5075694;28;20219;-52
2022/06/07 03:47:58;;;;;;;18.37;12.23;;;13.50;99.90;;;;;;5075428;28;20796;-53
2022/06/07 03:50:25;;;;;;;18.77;12.67;;;13.60;99.90;;;;;;5076859;28;20234;-51
2022/06/07 03:52:52;;;;;;;16.27;12.60;;;13.50;99.90;;;;;;5075764;28;20194;-52
2022/06/07 03:55:19;;;;;;;14.87;12.13;;;13.50;99.90;;;;;;5076084;28;20205;-52
2022/06/07 03:57:46;;;;;;;20.13;12.27;;;13.30;99.90;;;;;;5073240;28;20845;-52
2022/06/07 04:00:13;;;;;;;14.00;11.60;;;13.20;99.90;;;;;;5079167;28;20666;-52
2022/06/07 04:02:41;;;;;;;15.07;12.03;;;13.30;99.90;;;;;;5079057;28;20728;-52
2022/06/07 04:05:08;;;;;;;16.90;12.47;;;13.30;99.90;;;;;;5079933;28;20221;-52
2022/06/07 04:10:20;;;;;;;17.30;11.87;;;13.50;99.90;;;;;;5077098;28;20199;-52
2022/06/07 04:12:47;;;;;;;15.17;12.10;;;13.40;99.90;;;;;;5072315;28;20671;-52
2022/06/07 04:15:14;;;;;;;12.73;10.70;;;13.50;99.90;;;;;;5072608;28;20678;-49
2022/06/07 04:17:41;;;;;;;16.43;11.00;;;13.50;99.90;;;;;;5075429;28;20712;-51
2022/06/07 04:20:10;;;;;;;14.47;10.27;;;13.50;99.90;;;;;;5077904;28;20199;-51
2022/06/07 04:22:37;;;;;;;13.63;9.97;;;13.40;99.90;;;;;;5074740;28;20229;-52
2022/06/07 04:25:04;;;;;;;17.10;9.93;;;13.40;99.90;;;;;;5058121;28;20658;-52
2022/06/07 04:27:31;;;;;;;12.83;9.90;;;13.40;99.90;;;;;;5076376;28;20194;-52
2022/06/07 04:29:58;;;;;;;11.80;9.57;;;13.50;99.90;;;;;;5087038;28;20671;-51
2022/06/07 04:32:24;;;;;;;13.23;9.53;;;13.50;99.90;;;;;;5079731;28;20202;-52
2022/06/07 04:34:51;;;;;;;11.70;9.43;;;13.50;99.90;;;;;;5078242;28;20201;-51
2022/06/07 04:37:19;;;;;;;12.60;8.87;;;13.60;99.90;;;;;;5074545;28;20273;-51
2022/06/07 04:39:46;;;;;;;12.17;8.70;;;13.50;99.90;;;;;;5081294;28;20194;-53
2022/06/07 04:42:13;;;;;;;12.80;8.50;;;13.50;99.90;;;;;;5077164;28;20199;-52
2022/06/07 04:44:39;;;;;;;18.67;9.67;;;13.60;99.90;;;;;;5079450;28;20222;-53
2022/06/07 04:47:06;;;;;;;13.13;9.07;;;13.70;99.90;;;;;;5074094;28;20718;-52
2022/06/07 04:49:33;;;;;;;13.80;9.53;;;13.50;99.90;;;;;;5084402;28;20611;-53
2022/06/07 04:52:00;;;;;;;10.20;8.87;;;13.40;99.90;;;;;;5080096;28;20860;-52
2022/06/07 04:54:47;;;;;;;12.00;8.73;;;13.50;99.90;;;;;;5081946;28;20883;-51
2022/06/07 04:57:13;;;;;;;12.13;9.37;;;13.60;99.90;;;;;;5080737;28;20247;-51
2022/06/07 04:59:40;;;;;;;11.57;10.03;;;13.60;99.90;;;;;;5085176;28;20600;-51
2022/06/07 05:02:07;;;;;;;14.17;9.73;;;13.60;99.90;;;;;;5081006;28;20316;-52
2022/06/07 05:04:34;;;;;;;16.13;9.47;;;13.60;99.90;;;;;;5082309;28;22001;-52
2022/06/07 05:07:01;;;;;;;14.30;10.67;;;13.70;99.90;;;;;;5081138;28;20215;-52
2022/06/07 05:09:29;;;;;;;13.20;9.80;;;13.70;99.90;;;;;;5080963;28;20191;-52
2022/06/07 05:11:55;;;;;;;17.30;10.63;;;13.60;99.90;;;;;;5058176;28;20198;-52
2022/06/07 05:14:23;;;;;;;16.83;10.67;;;13.50;99.90;;;;;;5081913;28;20632;-51
2022/06/07 05:16:51;;;;;;;15.10;10.13;;;13.60;99.90;;;;;;5079701;28;20658;-51
2022/06/07 05:19:19;;;;;;;13.53;10.23;;;13.70;99.90;;;;;;5083692;28;20646;-51
2022/06/07 05:21:46;;;;;;;14.97;9.63;;;13.90;99.90;;;;;;5081794;28;20712;-51
2022/06/07 05:24:13;;;;;;;15.63;10.73;;;13.80;99.90;;;;;;5087138;28;20286;-53
2022/06/07 05:26:43;;;;;;;14.03;11.17;;;13.70;99.90;;;;;;5083204;28;20241;-52
2022/06/07 05:29:17;;;;;;;14.60;9.97;;;13.80;99.90;;;;;;5085380;28;20247;-53
2022/06/07 05:31:44;;;;;;;18.00;10.77;;;13.90;99.90;;;;;;5088956;28;20660;-52
2022/06/07 05:34:10;;;;;;;13.40;10.53;;;13.90;99.90;;;;;;5084683;28;20282;-52
2022/06/07 05:36:37;;;;;;;18.10;11.10;;;13.70;99.90;;;;;;5082562;28;20263;-52
2022/06/07 05:39:04;;;;;;;16.67;10.53;;;13.80;99.90;;;;;;5072844;28;20252;-52
2022/06/07 05:41:32;;;;;;;13.87;10.77;;;13.70;99.90;;;;;;5081999;28;20635;-53
2022/06/07 05:43:59;;;;;;;14.70;10.63;;;13.70;99.90;;;;;;5080383;28;20274;-50
2022/06/07 05:46:26;;;;;;;16.87;10.77;;;13.70;99.90;;;;;;5077505;28;20210;-49
2022/06/07 05:48:53;;;;;;;16.43;10.90;;;13.70;99.90;;;;;;5077547;28;20230;-53
2022/06/07 05:51:21;;;;;;;16.47;10.77;;;13.90;99.90;;;;;;5077211;28;20279;-52
2022/06/07 05:53:47;;;;;;;16.17;10.83;;;13.90;99.90;;;;;;5074561;28;20734;-52
2022/06/07 05:56:15;;;;;;;16.20;9.87;;;13.90;99.90;;;;;;5080219;28;20217;-53
2022/06/07 05:58:42;;;;;;;11.57;10.03;;;14.00;99.90;;;;;;5080631;28;20412;-53
2022/06/07 06:01:09;;;;;;;15.83;10.47;;;14.00;99.90;;;;;;5075362;28;20231;-51
2022/06/07 06:03:36;;;;;;;13.77;10.80;;;14.00;99.90;;;;;;5084775;28;20241;-53
2022/06/07 06:06:07;;;;;;;14.67;10.87;;;14.00;99.90;;;;;;5082512;28;20234;-51
2022/06/07 06:11:21;;;;;;;17.07;10.50;;;14.10;99.90;;;;;;5082589;28;20664;-53
2022/06/07 06:13:49;;;;;;;14.80;11.20;;;14.20;99.90;;;;;;5066056;28;20306;-53
2022/06/07 06:16:19;;;;;;;16.40;11.57;;;14.20;99.90;;;;;;5083715;28;20286;-52
2022/06/07 06:18:51;;;;;;;15.63;11.57;;;14.10;99.90;;;;;;5081292;28;20241;-51
2022/06/07 06:21:21;;;;;;;17.33;11.77;;;14.10;99.90;;;;;;5077279;28;20230;-52
2022/06/07 06:23:47;;;;;;;17.00;12.00;;;14.20;99.90;;;;;;5079645;28;20223;-51
2022/06/07 06:26:18;;;;;;;19.83;12.37;;;14.10;99.90;;;;;;5082909;28;20217;-52
2022/06/07 06:28:46;;;;;;;18.77;12.57;;;14.20;99.90;;;;;;5081660;28;20654;-52
2022/06/07 06:31:13;;;;;;;17.67;12.13;;;14.20;99.90;;;;;;5086864;28;20202;-53
2022/06/07 06:33:46;;;;;;;17.70;12.73;;;14.20;99.90;;;;;;5081437;28;20271;-55
2022/06/07 06:36:17;;;;;;;17.37;12.97;;;14.20;99.90;;;;;;5085632;28;20282;-52
2022/06/07 06:38:44;;;;;;;19.77;14.00;;;14.30;99.90;;;;;;5082926;28;20671;-53
2022/06/07 06:41:16;;;;;;;20.47;14.07;;;14.50;99.90;;;;;;5084738;28;20926;-53
2022/06/07 06:43:44;;;;;;;24.10;15.87;;;14.50;99.90;;;;;;5081955;28;20202;-53
2022/06/07 06:46:15;;;;;;;23.90;14.63;;;14.50;99.90;;;;;;5083390;28;20217;-53
2022/06/07 06:48:43;;;;;;;26.23;14.80;;;14.50;99.90;;;;;;5084401;28;20203;-52
2022/06/07 06:51:13;;;;;;;20.13;16.07;;;14.50;99.90;;;;;;5080212;28;20731;-52
2022/06/07 06:53:44;;;;;;;20.70;14.77;;;14.60;99.90;;;;;;5084429;28;20231;-53
2022/06/07 06:56:16;;;;;;;22.50;16.43;;;14.50;99.90;;;;;;5087581;28;20237;-52
2022/06/07 06:58:43;;;;;;;22.97;17.80;;;14.60;99.90;;;;;;5076064;28;20796;-52
2022/06/07 07:01:13;;;;;;;26.00;15.77;;;14.80;99.90;;;;;;5072871;28;20580;-51
2022/06/07 07:03:41;;;;;;;22.07;16.90;;;14.90;99.90;;;;;;5076371;28;20256;-52
2022/06/07 07:06:11;;;;;;;26.20;16.60;;;14.90;99.90;;;;;;5085804;28;20753;-51
2022/06/07 07:08:40;;;;;;;24.87;17.27;;;14.90;99.90;;;;;;5074381;28;20647;-53
2022/06/07 07:11:10;;;;;;;24.27;16.33;;;15.00;99.90;;;;;;5079797;28;20574;-52
2022/06/07 07:13:38;;;;;;;23.70;17.63;;;15.00;99.90;;;;;;5077827;28;20552;-53
2022/06/07 07:16:16;;;;;;;24.30;18.73;;;15.10;99.90;;;;;;5079986;28;20248;-53
2022/06/07 07:18:43;;;;;;;27.53;17.03;;;15.20;99.90;;;;;;5078480;28;20196;-52
2022/06/07 07:21:19;;;;;;;28.37;17.93;;;15.10;99.90;;;;;;5074105;28;20232;-52
2022/06/07 07:23:46;;;;;;;24.13;18.37;;;15.10;99.90;;;;;;5077193;28;20250;-53
2022/06/07 07:26:21;;;;;;;25.67;19.23;;;15.20;99.90;;;;;;5074263;28;20215;-52
2022/06/07 07:28:49;;;;;;;27.30;19.50;;;15.20;99.90;;;;;;5079540;28;20236;-52
2022/06/07 07:31:21;;;;;;;27.33;19.47;;;15.20;99.90;;;;;;5076615;28;20282;-51
2022/06/07 07:33:48;;;;;;;30.23;19.20;;;15.10;99.90;;;;;;5075856;28;20187;-52
2022/06/07 07:36:15;;;;;;;26.83;17.47;;;15.20;99.90;;;;;;5075324;28;20210;-53
2022/06/07 07:38:42;;;;;;;25.40;17.10;;;15.20;99.90;;;;;;5080627;28;20456;-54
2022/06/07 07:41:21;;;;;;;26.60;17.70;;;15.20;99.90;;;;;;5081020;28;20666;-50
2022/06/07 07:43:49;;;;;;;25.83;17.40;;;15.20;99.90;;;;;;5084679;28;20202;-50
2022/06/07 07:46:18;;;;;;;23.87;17.10;;;15.20;99.90;;;;;;5087513;28;20574;-51
2022/06/07 07:48:45;;;;;;;22.17;17.53;;;15.20;99.90;;;;;;5087927;28;20208;-53
2022/06/07 07:51:22;;;;;;;23.00;18.07;;;15.40;99.90;;;;;;5084781;28;20272;-51
2022/06/07 07:53:54;;;;;;;25.17;18.03;;;15.40;99.90;;;;;;5085449;28;20188;-52
2022/06/07 07:56:22;;;;;;;24.13;17.23;;;15.60;99.90;;;;;;5073692;28;20200;-52
2022/06/07 07:58:50;;;;;;;27.93;19.40;;;15.60;99.90;;;;;;5072455;28;20296;-51
2022/06/07 08:01:19;;;;;;;23.40;18.80;;;15.70;99.90;;;;;;5080685;28;20195;-53
2022/06/07 08:03:46;;;;;;;24.93;19.20;;;15.60;99.90;;;;;;5084427;28;20196;-52
2022/06/07 08:06:17;;;;;;;23.43;18.07;;;15.50;99.90;;;;;;5080425;28;20572;-53
2022/06/07 08:08:46;;;;;;;25.20;18.60;;;15.60;99.90;;;;;;5079907;28;20226;-53
2022/06/07 08:11:15;;;;;;;24.67;17.73;;;15.50;99.90;;;;;;5077183;28;20755;-53
2022/06/07 08:13:42;;;;;;;24.80;17.83;;;15.50;99.90;;;;;;5077986;28;20404;-53
2022/06/07 08:16:12;;;;;;;22.93;17.77;;;15.50;99.90;;;;;;5080724;28;20195;-52
2022/06/07 08:18:39;;;;;;;25.13;17.87;;;15.50;99.90;;;;;;5065446;28;20203;-52
2022/06/07 08:21:11;;;;;;;25.80;19.07;;;15.50;99.90;;;;;;5091508;28;20601;-52
2022/06/07 08:23:38;;;;;;;23.80;18.80;;;15.50;99.90;;;;;;5091295;28;20259;-52
2022/06/07 08:26:06;;;;;;;27.63;20.33;;;15.60;99.90;;;;;;5089701;28;20737;-52
2022/06/07 08:28:34;;;;;;;36.33;21.60;;;15.70;99.90;;;;;;5081521;28;20194;-52
2022/06/07 08:31:01;;;;;;;28.10;20.73;;;15.70;99.90;;;;;;5088276;28;20196;-52
2022/06/07 08:39:08;;;;;;;24.40;20.13;;;15.90;99.90;;;;;;5075770;28;20199;-52
2022/06/07 08:42:01;;;;;;;22.40;19.17;;;15.80;99.90;;;;;;5085261;28;20203;-52
2022/06/07 08:44:31;;;;;;;22.17;17.53;;;15.90;99.90;;;;;;5081415;28;20199;-52
2022/06/07 08:47:10;;;;;;;23.57;17.47;;;16.20;99.90;;;;;;5078875;28;20471;-52
2022/06/07 08:49:37;;;;;;;25.67;18.03;;;16.10;99.90;;;;;;5083454;28;20295;-51
2022/06/07 08:52:11;;;;;;;21.67;17.97;;;16.10;99.90;;;;;;5091853;28;20294;-52
2022/06/07 08:54:39;;;;;;;21.90;17.80;;;16.20;99.90;;;;;;5090170;28;20613;-51
2022/06/07 08:57:33;;;;;;;26.43;17.93;;;16.30;99.90;;;;;;5080407;28;20196;-53
2022/06/07 09:00:22;;;;;;;19.37;16.43;;;16.30;99.90;;;;;;5076833;28;20246;-52
2022/06/07 09:03:08;;;;;;;21.50;16.10;;;16.30;99.90;;;;;;5076200;28;20257;-51
2022/06/07 09:05:35;;;;;;;25.27;19.07;;;16.60;99.90;;;;;;5077507;28;20211;-52
2022/06/07 09:08:02;;;;;;;19.97;16.90;;;16.80;99.90;;;;;;5085072;28;20257;-52
2022/06/07 09:13:21;;;;;;;18.30;15.67;;;16.80;99.90;;;;;;5077019;28;20195;-53
2022/06/07 09:15:52;;;;;;;19.77;15.87;;;16.80;99.90;;;;;;5085738;28;20192;-53
2022/06/07 09:18:24;;;;;;;17.27;14.60;;;16.70;99.90;;;;;;5078609;28;20673;-52
2022/06/07 09:20:55;;;;;;;21.70;16.57;;;16.80;99.90;;;;;;5080682;28;20209;-52
2022/06/07 09:23:42;;;;;;;22.00;16.40;;;16.70;99.90;;;;;;5078367;28;20331;-52
2022/06/07 09:26:27;;;;;;;19.93;15.27;;;16.70;99.90;;;;;;5076205;28;20198;-52
2022/06/07 09:29:07;;;;;;;18.63;14.30;;;16.60;99.90;;;;;;5085767;28;20201;-52
2022/06/07 09:31:39;;;;;;;19.40;14.67;;;16.80;99.90;;;;;;5081167;28;20282;-52
2022/06/07 09:34:09;;;;;;;17.43;13.97;;;16.70;99.90;;;;;;5080443;28;20239;-53
2022/06/07 09:36:40;;;;;;;17.33;13.80;;;16.60;99.90;;;;;;5081349;28;20896;-52
2022/06/07 09:39:21;;;;;;;17.57;13.67;;;16.90;99.90;;;;;;5080175;28;20284;-52
2022/06/07 09:41:53;;;;;;;15.57;12.90;;;17.30;99.90;;;;;;5080736;28;20614;-52
2022/06/07 09:44:51;;;;;;;15.27;12.57;;;17.70;99.90;;;;;;5087249;28;20357;-53
2022/06/07 09:47:25;;;;;;;15.17;12.57;;;18.10;99.90;;;;;;5082475;28;20258;-52
2022/06/07 09:50:11;;;;;;;15.03;13.27;;;17.80;99.90;;;;;;5081949;28;20202;-52
2022/06/07 09:52:53;;;;;;;18.33;14.33;;;17.80;99.90;;;;;;5080243;28;20202;-52
2022/06/07 09:55:25;;;;;;;15.43;12.97;;;17.50;99.90;;;;;;5082994;28;20276;-52
2022/06/07 09:58:12;;;;;;;16.17;13.60;;;17.40;99.90;;;;;;5067333;28;20362;-52
2022/06/07 10:01:10;;;;;;;18.53;13.10;;;17.80;99.90;;;;;;5079405;28;20382;-52
2022/06/07 10:03:47;;;;;;;19.27;13.67;;;18.10;99.90;;;;;;5080102;28;20285;-53
2022/06/07 10:06:27;;;;;;;13.30;11.93;;;18.30;99.90;;;;;;5083672;28;20210;-51
2022/06/07 10:09:22;;;;;;;12.93;11.63;;;18.30;99.90;;;;;;5086550;28;20645;-52
2022/06/07 10:11:58;;;;;;;13.73;11.17;;;18.50;99.90;;;;;;5081183;28;20233;-54
2022/06/07 10:14:50;;;;;;;15.50;12.27;;;18.60;99.90;;;;;;5081649;28;20273;-52
2022/06/07 10:17:29;;;;;;;16.37;13.00;;;18.60;99.90;;;;;;5081683;28;20553;-51
2022/06/07 10:20:04;;;;;;;12.87;11.47;;;18.80;99.90;;;;;;5085560;28;20241;-52
2022/06/07 10:23:09;;;;;;;13.27;10.80;;;18.70;99.90;;;;;;5088396;28;20223;-52
2022/06/07 10:25:44;;;;;;;14.47;11.00;;;18.70;99.90;;;;;;5074775;28;20211;-52
2022/06/07 10:28:23;;;;;;;12.20;9.50;;;18.70;99.90;;;;;;5081348;28;20237;-52
2022/06/07 10:31:04;;;;;;;14.80;8.67;;;18.80;99.90;;;;;;5090186;28;20239;-53
2022/06/07 10:33:31;;;;;;;10.47;8.37;;;19.10;99.90;;;;;;5082548;28;20255;-52
2022/06/07 10:36:13;;;;;;;9.87;8.70;;;19.00;99.90;;;;;;5089525;28;20237;-51
2022/06/07 10:38:54;;;;;;;9.70;7.37;;;19.20;99.90;;;;;;5089343;28;20290;-52
2022/06/07 10:41:48;;;;;;;9.17;7.23;;;19.70;99.90;;;;;;5078819;28;20297;-53
2022/06/07 10:44:26;;;;;;;8.83;7.30;;;19.90;99.90;;;;;;5052372;28;20669;-53
2022/06/07 10:46:55;;;;;;;10.30;7.93;;;19.70;99.90;;;;;;5077481;28;20307;-52
2022/06/07 10:49:39;;;;;;;8.27;7.47;;;19.80;1.00;;;;;;5058170;28;20291;-52
2022/06/07 10:52:36;;;;;;;10.60;7.83;;;19.50;1.00;;;;;;5073657;28;20255;-53
2022/06/07 10:55:35;;;;;;;11.73;8.03;;;19.10;1.00;;;;;;5069120;28;20213;-50
2022/06/07 10:58:29;;;;;;;8.80;7.93;;;18.80;1.00;;;;;;5072744;28;20366;-51
2022/06/07 11:01:19;;;;;;;11.63;7.73;;;19.10;1.00;;;;;;5079253;28;20297;-50
2022/06/07 11:04:10;;;;;;;9.37;7.33;;;19.30;1.00;;;;;;5077639;28;20610;-51
2022/06/07 11:09:44;;;;;;;9.83;6.37;;;19.80;99.90;;;;;;5089829;28;20222;-52
2022/06/07 11:12:16;;;;;;;7.37;5.50;;;20.20;1.00;;;;;;5087465;28;20204;-52
2022/06/07 11:15:05;;;;;;;8.00;5.97;;;20.40;1.00;;;;;;5089549;28;20588;-53
2022/06/07 11:17:34;;;;;;;8.93;6.87;;;20.70;1.00;;;;;;5084154;28;20636;-52
2022/06/07 11:20:12;;;;;;;6.87;5.50;;;20.80;1.00;;;;;;5088340;28;20198;-52
2022/06/07 11:22:56;;;;;;;5.57;4.77;;;21.10;1.00;;;;;;5084191;28;20341;-52
2022/06/07 11:25:39;;;;;;;5.93;4.70;;;21.80;1.00;;;;;;5086363;28;20233;-52
2022/06/07 11:28:11;;;;;;;5.50;4.60;;;22.30;1.00;;;;;;5081384;28;20292;-53
2022/06/07 11:30:38;;;;;;;9.60;5.63;;;21.60;99.90;;;;;;5082885;28;20205;-53
2022/06/07 11:33:25;;;;;;;6.33;4.80;;;20.90;1.00;;;;;;5075088;28;20191;-54
2022/06/07 11:36:06;;;;;;;5.60;5.00;;;21.00;1.00;;;;;;5082843;28;20234;-53
2022/06/07 11:38:53;;;;;;;6.10;4.93;;;21.30;1.00;;;;;;5083708;28;20670;-51
2022/06/07 11:41:52;;;;;;;6.53;4.80;;;21.70;1.00;;;;;;5078268;28;20293;-52
2022/06/07 11:44:19;;;;;;;5.87;4.03;;;22.20;1.00;;;;;;5081457;28;20471;-53
2022/06/07 11:46:58;;;;;;;8.10;4.33;;;22.10;99.90;;;;;;5087649;28;20310;-52
2022/06/07 11:49:26;;;;;;;4.40;4.00;;;21.60;99.90;;;;;;5082750;28;20744;-53
2022/06/07 11:52:11;;;;;;;8.37;4.60;;;21.30;1.00;;;;;;5085081;28;20222;-52
2022/06/07 11:54:44;;;;;;;7.23;4.23;;;20.70;99.90;;;;;;5092793;28;20868;-53
2022/06/07 11:57:41;;;;;;;4.27;3.87;;;20.50;99.90;;;;;;5087432;28;20279;-53
2022/06/07 12:00:16;;;;;;;4.13;3.40;;;20.30;1.00;;;;;;5086190;28;20252;-52
2022/06/07 12:02:56;;;;;;;3.40;3.10;;;20.20;1.00;;;;;;5088753;28;20251;-53
2022/06/07 12:05:40;;;;;;;4.10;2.87;;;20.30;1.00;;;;;;5080421;28;20205;-52
2022/06/07 12:08:27;;;;;;;6.17;3.50;;;20.40;1.00;;;;;;5085050;28;20214;-53
2022/06/07 12:10:58;;;;;;;6.00;5.17;;;20.40;1.00;;;;;;5082952;28;20200;-53
2022/06/07 12:16:36;;;;;;;10.50;7.47;;;20.50;99.90;;;;;;5085838;28;20204;-52
2022/06/07 12:19:25;;;;;;;7.50;6.53;;;20.30;1.00;;;;;;5089827;28;20209;-52
2022/06/07 12:22:01;;;;;;;9.37;7.07;;;20.20;1.00;;;;;;5085087;28;20233;-53
2022/06/07 12:24:29;;;;;;;9.07;6.90;;;20.20;1.00;;;;;;5082275;28;20233;-53
2022/06/07 12:26:56;;;;;;;8.43;6.40;;;20.20;1.00;;;;;;5093413;28;20289;-53
2022/06/07 12:29:29;;;;;;;8.83;7.20;;;20.00;1.00;;;;;;5078124;28;20658;-53
2022/06/07 12:32:05;;;;;;;7.57;6.77;;;19.80;1.00;;;;;;5075309;28;20475;-53
2022/06/07 12:34:37;;;;;;;10.60;6.50;;;19.60;1.00;;;;;;5091413;28;20349;-53
2022/06/07 12:37:21;;;;;;;11.13;6.60;;;19.70;1.00;;;;;;5092698;28;20267;-53
2022/06/07 12:39:56;;;;;;;11.83;6.97;;;19.80;1.00;;;;;;5084211;28;20642;-53
2022/06/07 12:42:27;;;;;;;9.57;7.17;;;19.90;1.00;;;;;;5091102;28;20229;-52
2022/06/07 12:45:21;;;;;;;8.63;6.00;;;19.70;1.00;;;;;;5085841;28;20236;-53
2022/06/07 12:48:15;;;;;;;8.27;6.57;;;19.70;1.00;;;;;;5085316;28;20219;-54
2022/06/07 12:50:44;;;;;;;15.27;7.40;;;19.60;1.00;;;;;;5078729;28;20277;-53
2022/06/07 12:53:20;;;;;;;8.07;6.63;;;19.60;1.00;;;;;;5082007;28;20200;-53
2022/06/07 12:55:57;;;;;;;7.50;6.10;;;19.60;1.00;;;;;;5090049;28;20240;-53
2022/06/07 12:58:28;;;;;;;7.50;6.13;;;19.60;1.00;;;;;;5084724;28;20230;-52
2022/06/07 13:00:55;;;;;;;8.67;6.23;;;19.50;1.00;;;;;;5085642;28;20203;-55
2022/06/07 13:03:31;;;;;;;8.53;6.67;;;19.50;1.00;;;;;;5082308;28;20243;-51
2022/06/07 13:06:02;;;;;;;11.30;7.40;;;19.50;1.00;;;;;;5088846;28;20203;-52
2022/06/07 13:08:35;;;;;;;9.07;7.60;;;19.40;1.00;;;;;;5080106;28;20249;-52
2022/06/07 13:11:04;;;;;;;8.60;7.10;;;19.40;1.00;;;;;;5085762;28;20314;-54
2022/06/07 13:13:37;;;;;;;10.53;6.53;;;19.30;1.00;;;;;;5089481;28;20268;-51
2022/06/07 13:16:38;;;;;;;8.87;7.30;;;19.40;1.00;;;;;;5074842;28;20252;-53
2022/06/07 13:19:21;;;;;;;8.43;7.00;;;19.30;1.00;;;;;;5082050;28;20594;-53
2022/06/07 13:21:53;;;;;;;9.43;7.23;;;19.30;1.00;;;;;;5076145;28;20311;-53
2022/06/07 13:24:28;;;;;;;8.00;7.20;;;19.40;6.40;;;;;;5081882;28;20332;-53
2022/06/07 13:26:59;;;;;;;10.33;7.17;;;19.30;3.10;;;;;;5081470;28;20198;-53